01:55
Airports
History
Links
Donate
Help keep this website running!
PayPal
Bitcoin
This page is community maintained. The information is intended for PC simulator navigation or reference.
Always use approved charts for navigation.
SDKB
Casa Branca
Casa Branca (SDKB)
Casa Branca, São Paulo, Brazil (13700)
4
Lat/Lng:21° 47' 17" S / 47° 3' 20" W
-21.788056 / -47.055556
Elevation:2346'ft / 715mMSL
ID / ICAO:SDKB
Runways:1
Longest:(11-29) 692.0m / 2,270ft Dirt
Distance To
Airport ID:
Nearby WeatherUpdated 08-17-17 01:00 GMT
Nearby weather at SBYS, CAMPO FONTENELLE located 22.5 nautical miles from SDKB
Altimeter: 30.12
Visibility: 6.2 statute miles
Wind: 6 knots (200°)
Temp: 16°c 61°f
Humidity: 100.0%

METAR: SBYS 170100Z 20006KT CAVOK 16/16 Q1020

(Powered by phpweather)
Runway 11 / 29
Dimensions:692 x 20.1m 2270' x 66'ft
Surface:Dirt
Runway 11 [A]Runway 29 [B]
Heading:089°TH 269°TH
Lat:
Lng:
21° 47' 17.13"S
47° 3' 32.21"W
21° 47' 16.87"S
47° 3' 7.79"W
User Notes and Comments
Google Map
Nearby Airports
4 Fazenda Campo Vitoria 7.1 NM
SDVA ESE 115°
(U) Aeroclube de Sao Jose do Rio Pardo 12.6 NM
SIPA NE 38°
(U) COMANDANTE VITTORIO BONAMI 17.8 NM
SJCA N
4 Tambau 17.8 NM
SSET WNW 290°
(C) Mococa 20.8 NM
SDKK N
(U) Sao Joao da Boa Vista 21.0 NM
SDJV SE 138°
(C) CAMPO FONTENELLE 22.5 NM
SBYS (WX) SW 232°
VFR Chart
Flight Planning at SkyVector.com